createdAt,value
2023-04-27T00:02:20.005Z,8.88
2023-04-27T00:04:48.257Z,8.70
2023-04-27T00:07:16.764Z,9.70
2023-04-27T00:09:44.560Z,9.18
2023-04-27T00:12:12.429Z,9.65
2023-04-27T00:14:40.257Z,9.15
2023-04-27T00:17:08.068Z,8.75
2023-04-27T00:19:37.337Z,8.40
2023-04-27T00:22:06.344Z,8.27
2023-04-27T00:24:34.261Z,8.95
2023-04-27T00:27:03.129Z,9.38
2023-04-27T00:29:30.944Z,8.80
2023-04-27T00:31:58.827Z,7.75
2023-04-27T00:34:26.750Z,7.68
2023-04-27T00:36:55.879Z,9.13
2023-04-27T00:39:23.817Z,8.20
2023-04-27T00:41:51.774Z,8.65
2023-04-27T00:44:23.713Z,8.55
2023-04-27T00:46:52.110Z,8.45
2023-04-27T00:49:19.986Z,8.85
2023-04-27T00:51:48.300Z,8.88
2023-04-27T00:54:19.958Z,9.52
2023-04-27T00:56:49.632Z,8.88
2023-04-27T00:59:17.802Z,9.48
2023-04-27T01:01:46.267Z,9.13
2023-04-27T01:04:14.333Z,9.65
2023-04-27T01:06:42.419Z,9.80
2023-04-27T01:09:11.198Z,9.65
2023-04-27T01:11:40.517Z,9.68
2023-04-27T01:14:08.433Z,9.80
2023-04-27T01:16:37.374Z,10.02
2023-04-27T01:19:05.331Z,9.48
2023-04-27T01:21:33.182Z,11.68
2023-04-27T01:24:02.489Z,10.68
2023-04-27T01:26:30.425Z,9.07
2023-04-27T01:28:58.225Z,9.23
2023-04-27T01:31:28.142Z,10.02
2023-04-27T01:33:56.720Z,9.50
2023-04-27T01:36:25.217Z,9.75
2023-04-27T01:38:53.014Z,9.70
2023-04-27T01:41:22.258Z,9.48
2023-04-27T01:43:50.102Z,9.75
2023-04-27T01:46:17.984Z,9.25
2023-04-27T01:48:45.893Z,9.57
2023-04-27T01:51:13.735Z,9.75
2023-04-27T01:53:42.735Z,9.75
2023-04-27T01:56:11.324Z,9.90
2023-04-27T01:58:40.552Z,9.93
2023-04-27T02:01:08.712Z,10.30
2023-04-27T02:03:36.735Z,10.35
2023-04-27T02:06:06.585Z,9.70
2023-04-27T02:08:35.509Z,10.90
2023-04-27T02:11:03.729Z,10.35
2023-04-27T02:13:31.515Z,10.63
2023-04-27T02:16:02.219Z,10.68
2023-04-27T02:18:30.082Z,10.10
2023-04-27T02:20:58.202Z,10.13
2023-04-27T02:23:26.308Z,11.45
2023-04-27T02:25:54.082Z,10.85
2023-04-27T02:28:22.157Z,10.93
2023-04-27T02:30:50.494Z,10.55
2023-04-27T02:33:19.636Z,10.05
2023-04-27T02:35:47.435Z,10.25
2023-04-27T02:38:15.816Z,10.95
2023-04-27T02:40:43.910Z,10.45
2023-04-27T02:43:11.702Z,10.18
2023-04-27T02:45:39.688Z,9.82
2023-04-27T02:48:07.961Z,10.45
2023-04-27T02:50:41.154Z,11.27
2023-04-27T02:53:09.023Z,11.52
2023-04-27T02:55:37.222Z,11.30
2023-04-27T02:58:05.275Z,11.10
2023-04-27T03:00:34.239Z,11.65
2023-04-27T03:03:03.042Z,11.50
2023-04-27T03:05:31.899Z,12.27
2023-04-27T03:08:01.512Z,11.98
2023-04-27T03:10:29.554Z,12.18
2023-04-27T03:12:57.426Z,11.88
2023-04-27T03:15:25.391Z,11.95
2023-04-27T03:17:53.478Z,12.38
2023-04-27T03:20:22.714Z,11.95
2023-04-27T03:22:50.738Z,12.60
2023-04-27T03:25:22.434Z,11.38
2023-04-27T03:27:50.905Z,11.43
2023-04-27T03:30:18.740Z,12.40
2023-04-27T03:32:47.823Z,11.73
2023-04-27T03:35:15.826Z,11.35
2023-04-27T03:37:46.178Z,12.40
2023-04-27T03:40:15.518Z,12.70
2023-04-27T03:42:44.846Z,13.23
2023-04-27T03:45:13.146Z,13.13
2023-04-27T03:47:41.175Z,13.70
2023-04-27T03:50:09.577Z,12.57
2023-04-27T03:52:37.404Z,13.45
2023-04-27T03:55:07.550Z,12.55
2023-04-27T03:57:35.743Z,12.30
2023-04-27T04:00:11.696Z,12.60
2023-04-27T04:02:43.421Z,12.70
2023-04-27T04:05:12.315Z,12.55
2023-04-27T04:07:41.558Z,13.15
2023-04-27T04:10:09.814Z,12.23
2023-04-27T04:12:38.750Z,13.32
2023-04-27T04:15:09.285Z,13.00
2023-04-27T04:17:37.825Z,12.73
2023-04-27T04:20:08.829Z,12.90
2023-04-27T04:22:36.672Z,13.98
2023-04-27T04:25:05.135Z,12.98
2023-04-27T04:27:33.661Z,11.70
2023-04-27T04:30:01.853Z,11.88
2023-04-27T04:32:32.217Z,12.23
2023-04-27T04:35:01.452Z,11.68
2023-04-27T04:37:30.856Z,11.35
2023-04-27T04:39:58.672Z,12.18
2023-04-27T04:42:27.661Z,11.55
2023-04-27T04:44:57.003Z,11.55
2023-04-27T04:47:25.380Z,24.13
2023-04-27T04:49:54.818Z,12.05
2023-04-27T04:52:22.795Z,12.10
2023-04-27T04:54:52.604Z,11.07
2023-04-27T04:57:20.612Z,11.35
2023-04-27T04:59:48.592Z,10.68
2023-04-27T05:02:16.767Z,11.52
2023-04-27T05:04:44.684Z,10.18
2023-04-27T05:07:15.263Z,10.38
2023-04-27T05:09:43.916Z,11.00
2023-04-27T05:12:11.791Z,11.35
2023-04-27T05:14:40.631Z,10.82
2023-04-27T05:17:08.519Z,10.50
2023-04-27T05:19:36.394Z,10.35
2023-04-27T05:22:04.220Z,11.23
2023-04-27T05:24:34.178Z,10.30
2023-04-27T05:27:02.582Z,11.25
2023-04-27T05:29:30.572Z,10.57
2023-04-27T05:31:58.509Z,12.00
2023-04-27T05:34:26.817Z,11.23
2023-04-27T05:36:54.664Z,11.10
2023-04-27T05:39:22.960Z,10.25
2023-04-27T05:41:52.199Z,10.38
2023-04-27T05:44:20.197Z,10.02
2023-04-27T05:46:48.101Z,10.65
2023-04-27T05:49:16.164Z,10.80
2023-04-27T05:51:44.151Z,10.65
2023-04-27T05:54:12.130Z,10.13
2023-04-27T05:56:39.916Z,10.90
2023-04-27T05:59:09.769Z,11.00
2023-04-27T06:01:38.284Z,11.25
2023-04-27T06:04:06.240Z,10.95
2023-04-27T06:06:34.277Z,10.35
2023-04-27T06:09:02.223Z,10.27
2023-04-27T06:11:30.053Z,10.20
2023-04-27T06:13:57.806Z,10.13
2023-04-27T06:16:27.355Z,10.30
2023-04-27T06:18:55.355Z,9.52
2023-04-27T06:21:23.208Z,10.15
2023-04-27T06:23:51.052Z,9.02
2023-04-27T06:26:19.022Z,10.20
2023-04-27T06:28:47.011Z,9.60
2023-04-27T06:31:15.203Z,9.40
2023-04-27T06:33:44.635Z,9.70
2023-04-27T06:36:12.524Z,9.75
2023-04-27T06:38:40.422Z,8.60
2023-04-27T06:41:08.244Z,10.38
2023-04-27T06:43:36.400Z,10.23
2023-04-27T06:46:04.658Z,9.32
2023-04-27T06:48:32.534Z,9.35
2023-04-27T06:51:01.891Z,9.10
2023-04-27T06:53:29.742Z,9.93
2023-04-27T06:55:57.573Z,9.50
2023-04-27T06:58:25.632Z,9.35
2023-04-27T07:00:53.730Z,9.35
2023-04-27T07:03:22.714Z,9.15
2023-04-27T07:05:51.726Z,9.45
2023-04-27T07:08:21.046Z,9.43
2023-04-27T07:10:48.994Z,9.25
2023-04-27T07:13:17.272Z,10.05
2023-04-27T07:15:45.267Z,10.75
2023-04-27T07:18:13.234Z,8.52
2023-04-27T07:20:42.290Z,9.60
2023-04-27T07:23:10.157Z,8.93
2023-04-27T07:25:40.398Z,9.65
2023-04-27T07:28:09.019Z,9.02
2023-04-27T07:30:37.082Z,9.07
2023-04-27T07:33:05.121Z,7.97
2023-04-27T07:35:33.075Z,7.28
2023-04-27T07:38:01.759Z,8.43
2023-04-27T07:40:29.790Z,7.43
2023-04-27T07:42:59.074Z,7.05
2023-04-27T07:45:32.012Z,6.82
2023-04-27T07:48:00.464Z,7.35
2023-04-27T07:50:28.531Z,6.93
2023-04-27T07:52:57.727Z,7.00
2023-04-27T07:55:26.186Z,7.68
2023-04-27T07:57:54.742Z,8.25
2023-04-27T08:00:25.834Z,8.10
2023-04-27T08:02:55.058Z,7.65
2023-04-27T08:05:23.780Z,8.27
2023-04-27T08:07:54.209Z,8.45
2023-04-27T08:10:22.654Z,7.93
2023-04-27T08:12:50.678Z,8.90
2023-04-27T08:15:19.014Z,8.60
2023-04-27T08:17:48.569Z,7.22
2023-04-27T08:20:16.565Z,7.20
2023-04-27T08:22:45.116Z,8.30
2023-04-27T08:25:13.602Z,6.95
2023-04-27T08:27:41.949Z,7.30
2023-04-27T08:30:10.282Z,7.97
2023-04-27T08:32:38.368Z,7.15
2023-04-27T08:35:08.225Z,7.40
2023-04-27T08:37:36.122Z,7.47
2023-04-27T08:40:06.191Z,6.50
2023-04-27T08:42:34.010Z,7.00
2023-04-27T08:45:02.050Z,6.90
2023-04-27T08:47:41.747Z,6.82
2023-04-27T08:50:12.989Z,6.57
2023-04-27T08:52:41.041Z,7.22
2023-04-27T08:55:09.299Z,6.38
2023-04-27T08:57:37.131Z,5.93
2023-04-27T09:00:12.481Z,6.22
2023-04-27T09:02:46.293Z,7.00
2023-04-27T09:05:19.385Z,6.32
2023-04-27T09:07:57.042Z,6.43
2023-04-27T09:10:25.346Z,6.13
2023-04-27T09:12:57.224Z,6.20
2023-04-27T09:15:25.101Z,5.63
2023-04-27T09:17:57.385Z,6.18
2023-04-27T09:20:28.741Z,6.22
2023-04-27T09:22:58.579Z,6.70
2023-04-27T09:25:27.735Z,5.78
2023-04-27T09:27:55.706Z,6.05
2023-04-27T09:30:23.457Z,5.63
2023-04-27T09:32:56.115Z,5.82
2023-04-27T09:35:25.257Z,5.95
2023-04-27T09:37:55.679Z,6.13
2023-04-27T09:40:26.688Z,6.40
2023-04-27T09:42:55.221Z,5.38
2023-04-27T09:45:23.924Z,5.80
2023-04-27T09:47:51.930Z,5.72
2023-04-27T09:50:20.300Z,6.25
2023-04-27T09:52:48.228Z,5.43
2023-04-27T09:55:18.690Z,5.45
2023-04-27T09:57:51.585Z,5.80
2023-04-27T10:00:32.278Z,6.30
2023-04-27T10:03:05.398Z,4.70
2023-04-27T10:05:39.508Z,4.93
2023-04-27T10:08:07.795Z,4.20
2023-04-27T10:10:45.111Z,3.97
2023-04-27T10:13:21.850Z,4.25
2023-04-27T10:15:49.694Z,4.68
2023-04-27T10:18:26.787Z,4.10
2023-04-27T10:20:54.753Z,4.32
2023-04-27T10:23:26.432Z,4.57
2023-04-27T10:25:55.967Z,4.20
2023-04-27T10:28:23.831Z,3.50
2023-04-27T10:30:52.053Z,3.50
2023-04-27T10:33:21.458Z,5.30
2023-04-27T10:35:55.917Z,4.25
2023-04-27T10:38:29.316Z,4.30
2023-04-27T10:41:01.589Z,3.80
2023-04-27T10:43:30.753Z,4.22
2023-04-27T10:46:08.684Z,3.92
2023-04-27T10:48:36.637Z,3.67
2023-04-27T10:51:04.608Z,4.30
2023-04-27T10:53:35.478Z,3.92
2023-04-27T10:56:06.876Z,4.10
2023-04-27T11:01:10.143Z,4.65
2023-04-27T11:03:39.007Z,4.03
2023-04-27T11:06:07.560Z,3.70
2023-04-27T11:08:44.515Z,4.10
2023-04-27T11:11:16.961Z,3.30
2023-04-27T11:13:45.304Z,4.13
2023-04-27T11:16:13.358Z,3.50
2023-04-27T11:18:41.939Z,3.80
2023-04-27T11:21:10.938Z,3.30
2023-04-27T11:23:39.479Z,3.75
2023-04-27T11:26:10.857Z,4.20
2023-04-27T11:28:40.197Z,3.78
2023-04-27T11:31:08.403Z,3.55
2023-04-27T11:33:36.371Z,2.97
2023-04-27T11:36:04.480Z,4.00
2023-04-27T11:38:36.061Z,4.22
2023-04-27T11:41:05.546Z,4.05
2023-04-27T11:43:33.470Z,3.97
2023-04-27T11:46:06.119Z,3.70
2023-04-27T11:48:34.024Z,3.90
2023-04-27T11:51:01.850Z,3.60
2023-04-27T11:53:33.914Z,3.20
2023-04-27T11:56:02.706Z,3.60
2023-04-27T11:58:31.043Z,3.58
2023-04-27T12:00:59.293Z,3.60
2023-04-27T12:03:30.924Z,3.72
2023-04-27T12:06:11.577Z,3.58
2023-04-27T12:08:47.616Z,3.00
2023-04-27T12:11:15.578Z,3.30
2023-04-27T12:13:43.405Z,3.17
2023-04-27T12:16:11.470Z,3.17
2023-04-27T12:18:41.093Z,3.08
2023-04-27T12:21:10.293Z,2.85
2023-04-27T12:23:38.274Z,3.55
2023-04-27T12:26:06.491Z,3.47
2023-04-27T12:28:34.401Z,3.60
2023-04-27T12:31:04.088Z,2.70
2023-04-27T12:33:32.014Z,3.05
2023-04-27T12:36:01.304Z,2.67
2023-04-27T12:38:29.298Z,2.83
2023-04-27T12:40:57.199Z,3.22
2023-04-27T12:43:25.062Z,3.15
2023-04-27T12:45:52.884Z,3.30
2023-04-27T12:48:20.890Z,3.15
2023-04-27T12:50:48.870Z,3.58
2023-04-27T12:53:18.008Z,3.13
2023-04-27T12:55:47.081Z,2.78
2023-04-27T12:58:14.905Z,3.60
2023-04-27T13:00:42.912Z,3.25
2023-04-27T13:03:10.861Z,2.92
2023-04-27T13:05:38.814Z,3.45
2023-04-27T13:08:06.708Z,4.03
2023-04-27T13:10:36.614Z,3.42
2023-04-27T13:13:04.732Z,3.40
2023-04-27T13:15:32.547Z,3.30
2023-04-27T13:18:01.841Z,3.03
2023-04-27T13:20:29.859Z,3.08
2023-04-27T13:22:57.770Z,3.35
2023-04-27T13:25:25.594Z,3.50
2023-04-27T13:27:54.993Z,3.30
2023-04-27T13:30:22.914Z,2.88
2023-04-27T13:32:50.976Z,3.03
2023-04-27T13:35:18.886Z,3.58
2023-04-27T13:37:46.765Z,3.20
2023-04-27T13:40:14.719Z,3.17
2023-04-27T13:42:42.606Z,2.75
2023-04-27T13:45:12.375Z,3.08
2023-04-27T13:47:40.691Z,3.08
2023-04-27T13:50:09.614Z,2.95
2023-04-27T13:52:37.980Z,3.20
2023-04-27T13:55:07.045Z,3.20
2023-04-27T13:57:34.957Z,2.42
2023-04-27T14:00:02.936Z,3.08
2023-04-27T14:02:36.546Z,2.42
2023-04-27T14:05:04.846Z,2.55
2023-04-27T14:07:34.295Z,2.20
2023-04-27T14:10:02.279Z,2.78
2023-04-27T14:12:30.145Z,2.33
2023-04-27T14:14:58.602Z,1.92
2023-04-27T14:17:26.842Z,2.50
2023-04-27T14:19:56.436Z,2.22
2023-04-27T14:22:24.274Z,2.30
2023-04-27T14:24:53.556Z,2.03
2023-04-27T14:27:21.448Z,2.20
2023-04-27T14:29:50.146Z,2.60
2023-04-27T14:32:19.653Z,2.10
2023-04-27T14:34:47.725Z,2.20
2023-04-27T14:37:18.553Z,2.20
2023-04-27T14:39:46.584Z,1.73
2023-04-27T14:42:14.788Z,2.75
2023-04-27T14:44:42.621Z,1.88
2023-04-27T14:47:11.197Z,2.03
2023-04-27T14:49:39.013Z,1.83
2023-04-27T14:52:07.013Z,1.70
2023-04-27T14:54:38.469Z,1.58
2023-04-27T14:57:06.479Z,1.90
2023-04-27T14:59:34.506Z,1.50
2023-04-27T15:02:03.069Z,1.80
2023-04-27T15:04:31.091Z,1.45
2023-04-27T15:06:58.982Z,1.25
2023-04-27T15:09:26.762Z,1.70
2023-04-27T15:11:55.930Z,2.30
2023-04-27T15:14:23.763Z,2.10
2023-04-27T15:16:51.684Z,2.22
2023-04-27T15:19:19.618Z,2.13
2023-04-27T15:21:48.620Z,2.25
2023-04-27T15:24:16.468Z,2.22
2023-04-27T15:26:44.242Z,2.35
2023-04-27T15:29:13.632Z,2.20
2023-04-27T15:31:41.734Z,2.33
2023-04-27T15:34:09.846Z,2.10
2023-04-27T15:36:37.639Z,2.28
2023-04-27T15:39:08.826Z,2.53
2023-04-27T15:41:38.084Z,2.28
2023-04-27T15:44:06.543Z,2.30
2023-04-27T15:46:35.786Z,2.10
2023-04-27T15:49:04.014Z,2.28
2023-04-27T15:51:32.417Z,1.70
2023-04-27T15:54:00.158Z,1.65
2023-04-27T15:56:30.451Z,1.42
2023-04-27T15:58:58.523Z,2.10
2023-04-27T16:01:26.566Z,2.60
2023-04-27T16:03:56.583Z,1.63
2023-04-27T16:06:30.300Z,1.52
2023-04-27T16:08:58.126Z,1.80
2023-04-27T16:11:26.082Z,1.50
2023-04-27T16:13:53.917Z,1.70
2023-04-27T16:16:21.965Z,1.75
2023-04-27T16:18:49.917Z,1.80
2023-04-27T16:21:19.210Z,2.03
2023-04-27T16:23:47.176Z,1.60
2023-04-27T16:26:15.013Z,1.90
2023-04-27T16:28:42.940Z,1.80
2023-04-27T16:31:10.862Z,1.92
2023-04-27T16:33:38.687Z,1.80
2023-04-27T16:36:06.689Z,2.35
2023-04-27T16:38:38.498Z,1.63
2023-04-27T16:41:07.348Z,2.00
2023-04-27T16:43:35.234Z,2.28
2023-04-27T16:46:03.118Z,1.80
2023-04-27T16:48:31.007Z,1.77
2023-04-27T16:50:59.484Z,1.75
2023-04-27T16:53:27.384Z,1.83
2023-04-27T16:55:56.640Z,2.05
2023-04-27T16:58:24.744Z,1.63
2023-04-27T17:00:52.666Z,1.73
2023-04-27T17:03:20.910Z,1.80
2023-04-27T17:05:48.842Z,1.80
2023-04-27T17:08:16.703Z,2.00
2023-04-27T17:10:45.489Z,1.95
2023-04-27T17:13:16.469Z,2.05
2023-04-27T17:15:44.406Z,2.20
2023-04-27T17:18:12.298Z,2.03
2023-04-27T17:20:41.682Z,2.25
2023-04-27T17:23:10.301Z,2.03
2023-04-27T17:25:38.146Z,2.33
2023-04-27T17:28:06.038Z,2.40
2023-04-27T17:30:35.251Z,2.85
2023-04-27T17:33:03.724Z,3.08
2023-04-27T17:35:31.584Z,2.78
2023-04-27T17:37:59.427Z,2.13
2023-04-27T17:40:27.523Z,2.60
2023-04-27T17:42:57.827Z,2.47
2023-04-27T17:45:26.632Z,2.80
2023-04-27T17:47:55.933Z,2.30
2023-04-27T17:50:23.937Z,3.15
2023-04-27T17:52:53.567Z,3.40
2023-04-27T17:55:21.660Z,3.45
2023-04-27T17:57:49.764Z,4.03
2023-04-27T18:00:18.362Z,5.47
2023-04-27T18:02:48.220Z,5.28
2023-04-27T18:05:17.780Z,5.53
2023-04-27T18:07:46.649Z,5.32
2023-04-27T18:10:15.091Z,5.10
2023-04-27T18:12:43.045Z,4.68
2023-04-27T18:15:11.369Z,3.83
2023-04-27T18:17:39.259Z,4.00
2023-04-27T18:20:11.275Z,3.85
2023-04-27T18:22:40.954Z,3.80
2023-04-27T18:25:09.631Z,3.75
2023-04-27T18:27:38.460Z,4.15
2023-04-27T18:30:07.815Z,4.95
2023-04-27T18:32:36.160Z,5.22
2023-04-27T18:35:04.174Z,5.70
2023-04-27T18:37:32.341Z,5.53
2023-04-27T18:40:01.705Z,4.93
2023-04-27T18:42:29.721Z,6.00
2023-04-27T18:45:00.754Z,5.93
2023-04-27T18:47:29.085Z,5.15
2023-04-27T18:49:57.486Z,5.90
2023-04-27T18:52:25.375Z,5.78
2023-04-27T18:54:53.564Z,11.13
2023-04-27T18:57:22.948Z,18.35
2023-04-27T18:59:50.913Z,15.98
2023-04-27T19:02:18.797Z,12.90
2023-04-27T19:04:56.847Z,8.88
2023-04-27T19:07:34.952Z,7.93
2023-04-27T19:10:03.184Z,6.78
2023-04-27T19:12:32.727Z,6.22
2023-04-27T19:15:00.693Z,6.57
2023-04-27T19:17:28.745Z,7.30
2023-04-27T19:19:56.966Z,6.55
2023-04-27T19:22:25.139Z,5.38
2023-04-27T19:24:53.184Z,5.13
2023-04-27T19:27:21.135Z,5.18
2023-04-27T19:29:51.899Z,5.20
2023-04-27T19:32:20.370Z,6.22
2023-04-27T19:34:48.305Z,5.80
2023-04-27T19:37:16.202Z,5.00
2023-04-27T19:39:44.415Z,6.47
2023-04-27T19:42:12.351Z,9.75
2023-04-27T19:44:40.542Z,10.25
2023-04-27T19:47:10.839Z,7.00
2023-04-27T19:49:40.515Z,6.57
2023-04-27T19:52:10.102Z,7.70
2023-04-27T19:54:38.434Z,7.95
2023-04-27T19:57:06.727Z,8.35
2023-04-27T19:59:35.048Z,7.43
2023-04-27T20:02:04.717Z,7.72
2023-04-27T20:04:36.199Z,7.18
2023-04-27T20:07:06.321Z,8.45
2023-04-27T20:09:34.329Z,8.95
2023-04-27T20:12:02.187Z,9.52
2023-04-27T20:14:31.343Z,9.25
2023-04-27T20:16:59.269Z,9.25
2023-04-27T20:19:27.198Z,7.82
2023-04-27T20:21:56.767Z,7.47
2023-04-27T20:24:24.665Z,6.93
2023-04-27T20:26:52.600Z,6.85
2023-04-27T20:29:20.704Z,7.20
2023-04-27T20:31:49.458Z,7.18
2023-04-27T20:34:17.433Z,7.40
2023-04-27T20:36:45.484Z,7.32
2023-04-27T20:39:15.466Z,6.68
2023-04-27T20:41:44.383Z,7.03
2023-04-27T20:44:13.132Z,6.80
2023-04-27T20:46:41.577Z,6.53
2023-04-27T20:49:09.435Z,6.88
2023-04-27T20:51:37.567Z,7.32
2023-04-27T20:54:06.034Z,7.38
2023-04-27T20:56:35.420Z,7.05
2023-04-27T20:59:04.450Z,7.05
2023-04-27T21:01:33.053Z,7.22
2023-04-27T21:04:01.373Z,7.32
2023-04-27T21:06:29.401Z,7.22
2023-04-27T21:08:57.798Z,6.95
2023-04-27T21:11:26.495Z,7.72
2023-04-27T21:13:55.693Z,7.32
2023-04-27T21:16:24.123Z,7.63
2023-04-27T21:18:52.436Z,6.88
2023-04-27T21:21:22.304Z,7.90
2023-04-27T21:23:57.143Z,7.82
2023-04-27T21:26:32.710Z,8.10
2023-04-27T21:29:05.332Z,9.60
2023-04-27T21:31:33.709Z,32.90
2023-04-27T21:34:02.065Z,14.88
2023-04-27T21:36:29.990Z,8.10
2023-04-27T21:38:58.803Z,7.90
2023-04-27T21:41:27.396Z,8.13
2023-04-27T21:43:55.717Z,8.00
2023-04-27T21:46:25.207Z,8.30
2023-04-27T21:48:53.141Z,8.07
2023-04-27T21:51:21.082Z,8.35
2023-04-27T21:53:48.925Z,8.10
2023-04-27T21:56:16.833Z,8.20
2023-04-27T21:58:45.238Z,8.43
2023-04-27T22:01:13.609Z,8.38
2023-04-27T22:03:43.244Z,8.13
2023-04-27T22:06:11.686Z,7.97
2023-04-27T22:08:39.612Z,8.73
2023-04-27T22:11:07.955Z,8.57
2023-04-27T22:13:36.114Z,8.23
2023-04-27T22:16:04.167Z,8.52
2023-04-27T22:18:31.988Z,8.13
2023-04-27T22:21:01.492Z,8.20
2023-04-27T22:23:30.105Z,9.00
2023-04-27T22:25:58.003Z,9.10
2023-04-27T22:28:25.950Z,8.15
2023-04-27T22:30:54.006Z,8.23
2023-04-27T22:33:21.763Z,8.85
2023-04-27T22:35:49.873Z,7.95
2023-04-27T22:38:19.086Z,8.35
2023-04-27T22:40:46.902Z,8.95
2023-04-27T22:43:14.669Z,8.15
2023-04-27T22:45:42.542Z,7.63
2023-04-27T22:48:10.508Z,8.32
2023-04-27T22:50:38.388Z,8.57
2023-04-27T22:53:06.426Z,8.25
2023-04-27T22:55:35.861Z,8.48
2023-04-27T22:58:03.772Z,8.30
2023-04-27T23:00:31.829Z,8.02
2023-04-27T23:02:59.903Z,7.97
2023-04-27T23:05:29.065Z,8.07
2023-04-27T23:07:57.193Z,7.78
2023-04-27T23:10:25.127Z,8.27
2023-04-27T23:12:54.946Z,7.80
2023-04-27T23:15:23.972Z,7.72
2023-04-27T23:17:51.853Z,8.20
2023-04-27T23:20:28.210Z,8.50
2023-04-27T23:22:57.020Z,7.70
2023-04-27T23:25:24.988Z,8.15
2023-04-27T23:27:55.106Z,8.15
2023-04-27T23:30:23.037Z,8.60
2023-04-27T23:32:50.949Z,7.60
2023-04-27T23:35:18.850Z,7.85
2023-04-27T23:37:46.653Z,7.55
2023-04-27T23:40:14.582Z,8.00
2023-04-27T23:42:42.384Z,7.55
2023-04-27T23:45:12.296Z,6.75
2023-04-27T23:47:40.236Z,7.07
2023-04-27T23:50:08.489Z,8.18
2023-04-27T23:52:36.361Z,7.45
2023-04-27T23:55:04.226Z,8.02
2023-04-27T23:57:32.855Z,8.10
